sensor_id;sensor_type;location;lat;lon;timestamp;temperature;humidity
12233;DHT22;6179;51.748;8.728;2022-07-12T00:06:00;15.50;98.30
12233;DHT22;6179;51.748;8.728;2022-07-12T00:12:01;15.50;98.30
12233;DHT22;6179;51.748;8.728;2022-07-12T00:18:02;15.40;98.30
12233;DHT22;6179;51.748;8.728;2022-07-12T00:24:03;15.30;98.30
12233;DHT22;6179;51.748;8.728;2022-07-12T00:30:07;15.20;98.30
12233;DHT22;6179;51.748;8.728;2022-07-12T00:36:08;15.20;98.30
12233;DHT22;6179;51.748;8.728;2022-07-12T00:42:09;15.20;98.30
12233;DHT22;6179;51.748;8.728;2022-07-12T00:48:10;15.20;98.30
12233;DHT22;6179;51.748;8.728;2022-07-12T00:54:11;15.20;98.30
12233;DHT22;6179;51.748;8.728;2022-07-12T01:00:16;15.10;98.30
12233;DHT22;6179;51.748;8.728;2022-07-12T01:06:19;15.40;98.30
12233;DHT22;6179;51.748;8.728;2022-07-12T01:12:21;15.40;98.30
12233;DHT22;6179;51.748;8.728;2022-07-12T01:18:22;15.40;98.30
12233;DHT22;6179;51.748;8.728;2022-07-12T01:24:23;15.40;98.30
12233;DHT22;6179;51.748;8.728;2022-07-12T01:30:24;15.30;98.30
12233;DHT22;6179;51.748;8.728;2022-07-12T01:36:25;15.20;98.30
12233;DHT22;6179;51.748;8.728;2022-07-12T01:42:27;14.80;98.30
12233;DHT22;6179;51.748;8.728;2022-07-12T01:48:28;14.80;98.30
12233;DHT22;6179;51.748;8.728;2022-07-12T01:54:28;14.90;98.30
12233;DHT22;6179;51.748;8.728;2022-07-12T02:00:29;14.70;98.30
12233;DHT22;6179;51.748;8.728;2022-07-12T02:06:32;14.80;98.30
12233;DHT22;6179;51.748;8.728;2022-07-12T02:12:34;14.70;98.30
12233;DHT22;6179;51.748;8.728;2022-07-12T02:18:36;14.50;98.30
12233;DHT22;6179;51.748;8.728;2022-07-12T02:24:37;14.70;98.30
12233;DHT22;6179;51.748;8.728;2022-07-12T02:30:37;14.60;98.30
12233;DHT22;6179;51.748;8.728;2022-07-12T02:36:38;14.50;98.30
12233;DHT22;6179;51.748;8.728;2022-07-12T02:42:38;14.50;98.30
12233;DHT22;6179;51.748;8.728;2022-07-12T02:48:40;14.40;98.30
12233;DHT22;6179;51.748;8.728;2022-07-12T02:54:41;14.70;98.30
12233;DHT22;6179;51.748;8.728;2022-07-12T03:00:42;14.60;98.30
12233;DHT22;6179;51.748;8.728;2022-07-12T03:06:45;14.70;98.30
12233;DHT22;6179;51.748;8.728;2022-07-12T03:12:45;14.50;98.30
12233;DHT22;6179;51.748;8.728;2022-07-12T03:18:46;14.50;98.30
12233;DHT22;6179;51.748;8.728;2022-07-12T03:24:47;14.40;98.30
12233;DHT22;6179;51.748;8.728;2022-07-12T03:30:47;14.60;98.30
12233;DHT22;6179;51.748;8.728;2022-07-12T03:36:48;14.50;98.30
12233;DHT22;6179;51.748;8.728;2022-07-12T03:42:49;14.60;98.30
12233;DHT22;6179;51.748;8.728;2022-07-12T03:48:51;14.60;98.30
12233;DHT22;6179;51.748;8.728;2022-07-12T03:54:51;14.70;98.30
12233;DHT22;6179;51.748;8.728;2022-07-12T04:00:52;14.80;98.30
12233;DHT22;6179;51.748;8.728;2022-07-12T04:06:53;14.80;98.30
12233;DHT22;6179;51.748;8.728;2022-07-12T04:12:53;14.60;98.30
12233;DHT22;6179;51.748;8.728;2022-07-12T04:18:54;14.60;98.30
12233;DHT22;6179;51.748;8.728;2022-07-12T04:24:55;14.50;98.30
12233;DHT22;6179;51.748;8.728;2022-07-12T04:30:55;14.80;98.30
12233;DHT22;6179;51.748;8.728;2022-07-12T04:36:56;15.00;98.30
12233;DHT22;6179;51.748;8.728;2022-07-12T04:42:56;15.10;98.30
12233;DHT22;6179;51.748;8.728;2022-07-12T04:48:57;15.20;98.30
12233;DHT22;6179;51.748;8.728;2022-07-12T04:54:58;15.40;98.30
12233;DHT22;6179;51.748;8.728;2022-07-12T05:00:58;15.30;98.30
12233;DHT22;6179;51.748;8.728;2022-07-12T05:06:59;15.40;98.30
12233;DHT22;6179;51.748;8.728;2022-07-12T05:13:00;15.50;98.30
12233;DHT22;6179;51.748;8.728;2022-07-12T05:19:01;15.80;98.30
12233;DHT22;6179;51.748;8.728;2022-07-12T05:25:02;16.00;98.30
12233;DHT22;6179;51.748;8.728;2022-07-12T05:31:02;16.30;98.30
12233;DHT22;6179;51.748;8.728;2022-07-12T05:37:03;16.50;98.30
12233;DHT22;6179;51.748;8.728;2022-07-12T05:43:04;16.90;98.30
12233;DHT22;6179;51.748;8.728;2022-07-12T05:49:05;16.80;98.30
12233;DHT22;6179;51.748;8.728;2022-07-12T05:55:06;16.80;98.30
12233;DHT22;6179;51.748;8.728;2022-07-12T06:01:07;16.90;98.30
12233;DHT22;6179;51.748;8.728;2022-07-12T06:07:07;17.10;98.30
12233;DHT22;6179;51.748;8.728;2022-07-12T06:13:08;17.60;98.30
12233;DHT22;6179;51.748;8.728;2022-07-12T06:19:10;17.50;98.30
12233;DHT22;6179;51.748;8.728;2022-07-12T06:25:10;18.10;98.30
12233;DHT22;6179;51.748;8.728;2022-07-12T06:31:11;18.80;98.30
12233;DHT22;6179;51.748;8.728;2022-07-12T06:37:12;18.80;98.30
12233;DHT22;6179;51.748;8.728;2022-07-12T06:43:14;18.60;98.30
12233;DHT22;6179;51.748;8.728;2022-07-12T06:49:15;18.60;98.30
12233;DHT22;6179;51.748;8.728;2022-07-12T06:55:16;18.60;98.30
12233;DHT22;6179;51.748;8.728;2022-07-12T07:01:16;19.10;98.30
12233;DHT22;6179;51.748;8.728;2022-07-12T07:07:17;19.70;96.90
12233;DHT22;6179;51.748;8.728;2022-07-12T07:13:18;20.60;94.90
12233;DHT22;6179;51.748;8.728;2022-07-12T07:19:18;21.30;91.60
12233;DHT22;6179;51.748;8.728;2022-07-12T07:25:19;21.30;90.00
12233;DHT22;6179;51.748;8.728;2022-07-12T07:31:20;21.40;87.30
12233;DHT22;6179;51.748;8.728;2022-07-12T07:37:20;21.50;88.50
12233;DHT22;6179;51.748;8.728;2022-07-12T07:43:21;21.40;86.30
12233;DHT22;6179;51.748;8.728;2022-07-12T07:49:22;20.50;90.00
12233;DHT22;6179;51.748;8.728;2022-07-12T07:55:22;21.10;87.00
12233;DHT22;6179;51.748;8.728;2022-07-12T08:01:23;21.50;87.50
12233;DHT22;6179;51.748;8.728;2022-07-12T08:07:42;21.00;86.90
12233;DHT22;6179;51.748;8.728;2022-07-12T08:13:43;20.90;88.50
12233;DHT22;6179;51.748;8.728;2022-07-12T08:19:43;21.10;89.10
12233;DHT22;6179;51.748;8.728;2022-07-12T08:25:44;21.20;87.00
12233;DHT22;6179;51.748;8.728;2022-07-12T08:31:45;21.20;86.80
12233;DHT22;6179;51.748;8.728;2022-07-12T08:37:46;21.20;87.40
12233;DHT22;6179;51.748;8.728;2022-07-12T08:43:47;21.40;87.10
12233;DHT22;6179;51.748;8.728;2022-07-12T08:50:10;21.80;88.30
12233;DHT22;6179;51.748;8.728;2022-07-12T08:56:32;21.90;84.30
12233;DHT22;6179;51.748;8.728;2022-07-12T09:02:53;21.90;83.80
12233;DHT22;6179;51.748;8.728;2022-07-12T09:08:53;22.50;84.30
12233;DHT22;6179;51.748;8.728;2022-07-12T09:14:54;22.70;81.40
12233;DHT22;6179;51.748;8.728;2022-07-12T09:20:56;22.70;82.20
12233;DHT22;6179;51.748;8.728;2022-07-12T09:27:02;22.90;83.10
12233;DHT22;6179;51.748;8.728;2022-07-12T09:33:05;23.50;79.80
12233;DHT22;6179;51.748;8.728;2022-07-12T09:39:24;23.60;83.00
12233;DHT22;6179;51.748;8.728;2022-07-12T09:45:26;23.50;81.10
12233;DHT22;6179;51.748;8.728;2022-07-12T09:51:28;23.80;79.70
12233;DHT22;6179;51.748;8.728;2022-07-12T09:57:32;23.90;80.90
12233;DHT22;6179;51.748;8.728;2022-07-12T10:03:33;23.50;80.20
12233;DHT22;6179;51.748;8.728;2022-07-12T10:09:35;23.40;82.50
12233;DHT22;6179;51.748;8.728;2022-07-12T10:15:36;23.60;81.70
12233;DHT22;6179;51.748;8.728;2022-07-12T10:21:41;24.20;79.10
12233;DHT22;6179;51.748;8.728;2022-07-12T10:27:49;24.60;74.40
12233;DHT22;6179;51.748;8.728;2022-07-12T10:34:09;24.40;77.90
12233;DHT22;6179;51.748;8.728;2022-07-12T10:40:20;24.30;78.10
12233;DHT22;6179;51.748;8.728;2022-07-12T10:46:23;24.60;75.00
12233;DHT22;6179;51.748;8.728;2022-07-12T10:52:25;24.90;78.10
12233;DHT22;6179;51.748;8.728;2022-07-12T10:58:36;24.70;77.70
12233;DHT22;6179;51.748;8.728;2022-07-12T11:04:48;25.10;74.30
12233;DHT22;6179;51.748;8.728;2022-07-12T11:10:58;24.60;76.60
12233;DHT22;6179;51.748;8.728;2022-07-12T11:17:00;24.90;77.50
12233;DHT22;6179;51.748;8.728;2022-07-12T11:23:00;25.20;73.00
12233;DHT22;6179;51.748;8.728;2022-07-12T11:29:02;25.50;72.20
12233;DHT22;6179;51.748;8.728;2022-07-12T11:35:03;25.40;76.40
12233;DHT22;6179;51.748;8.728;2022-07-12T11:41:05;25.30;75.60
12233;DHT22;6179;51.748;8.728;2022-07-12T11:47:07;25.40;75.50
12233;DHT22;6179;51.748;8.728;2022-07-12T11:53:16;26.10;73.90
12233;DHT22;6179;51.748;8.728;2022-07-12T11:59:22;26.30;71.20
12233;DHT22;6179;51.748;8.728;2022-07-12T12:05:23;26.00;74.50
12233;DHT22;6179;51.748;8.728;2022-07-12T12:11:27;26.60;69.90
12233;DHT22;6179;51.748;8.728;2022-07-12T12:17:34;26.20;68.40
12233;DHT22;6179;51.748;8.728;2022-07-12T12:23:37;26.50;69.30
12233;DHT22;6179;51.748;8.728;2022-07-12T12:29:41;27.20;66.70
12233;DHT22;6179;51.748;8.728;2022-07-12T12:35:42;27.10;67.50
12233;DHT22;6179;51.748;8.728;2022-07-12T12:41:42;26.90;69.60
12233;DHT22;6179;51.748;8.728;2022-07-12T12:47:57;27.00;69.60
12233;DHT22;6179;51.748;8.728;2022-07-12T12:53:58;27.30;67.60
12233;DHT22;6179;51.748;8.728;2022-07-12T12:59:58;27.90;64.00
12233;DHT22;6179;51.748;8.728;2022-07-12T13:06:00;27.70;68.50
12233;DHT22;6179;51.748;8.728;2022-07-12T13:12:03;27.50;67.90
12233;DHT22;6179;51.748;8.728;2022-07-12T13:18:06;27.70;64.50
12233;DHT22;6179;51.748;8.728;2022-07-12T13:24:07;27.30;71.70
12233;DHT22;6179;51.748;8.728;2022-07-12T13:30:09;27.40;70.40
12233;DHT22;6179;51.748;8.728;2022-07-12T13:36:10;27.40;67.90
12233;DHT22;6179;51.748;8.728;2022-07-12T13:42:11;28.00;63.00
12233;DHT22;6179;51.748;8.728;2022-07-12T13:48:12;27.70;64.30
12233;DHT22;6179;51.748;8.728;2022-07-12T13:54:13;27.80;65.10
12233;DHT22;6179;51.748;8.728;2022-07-12T14:00:15;28.30;63.70
12233;DHT22;6179;51.748;8.728;2022-07-12T14:06:16;28.70;60.70
12233;DHT22;6179;51.748;8.728;2022-07-12T14:12:17;29.00;59.70
12233;DHT22;6179;51.748;8.728;2022-07-12T14:18:18;28.70;61.90
12233;DHT22;6179;51.748;8.728;2022-07-12T14:24:18;28.60;64.40
12233;DHT22;6179;51.748;8.728;2022-07-12T14:30:19;28.90;57.80
12233;DHT22;6179;51.748;8.728;2022-07-12T14:36:19;28.70;59.00
12233;DHT22;6179;51.748;8.728;2022-07-12T14:42:20;28.50;59.70
12233;DHT22;6179;51.748;8.728;2022-07-12T14:48:21;28.60;62.60
12233;DHT22;6179;51.748;8.728;2022-07-12T14:54:22;28.70;65.30
12233;DHT22;6179;51.748;8.728;2022-07-12T15:00:23;28.60;62.60
12233;DHT22;6179;51.748;8.728;2022-07-12T15:06:23;28.20;64.70
12233;DHT22;6179;51.748;8.728;2022-07-12T15:12:26;28.50;61.70
12233;DHT22;6179;51.748;8.728;2022-07-12T15:18:28;28.80;61.10
12233;DHT22;6179;51.748;8.728;2022-07-12T15:24:28;28.60;61.00
12233;DHT22;6179;51.748;8.728;2022-07-12T15:30:29;28.90;63.80
12233;DHT22;6179;51.748;8.728;2022-07-12T15:36:30;28.90;58.80
12233;DHT22;6179;51.748;8.728;2022-07-12T15:42:31;29.30;59.20
12233;DHT22;6179;51.748;8.728;2022-07-12T15:48:31;30.00;57.60
12233;DHT22;6179;51.748;8.728;2022-07-12T15:54:32;30.10;55.80
12233;DHT22;6179;51.748;8.728;2022-07-12T16:00:33;29.50;56.40
12233;DHT22;6179;51.748;8.728;2022-07-12T16:06:35;29.00;59.40
12233;DHT22;6179;51.748;8.728;2022-07-12T16:12:36;28.80;59.80
12233;DHT22;6179;51.748;8.728;2022-07-12T16:18:37;28.60;58.90
12233;DHT22;6179;51.748;8.728;2022-07-12T16:24:37;28.90;63.00
12233;DHT22;6179;51.748;8.728;2022-07-12T16:30:38;28.70;60.90
12233;DHT22;6179;51.748;8.728;2022-07-12T16:36:39;28.70;60.80
12233;DHT22;6179;51.748;8.728;2022-07-12T16:42:40;28.80;61.70
12233;DHT22;6179;51.748;8.728;2022-07-12T16:48:41;28.70;59.30
12233;DHT22;6179;51.748;8.728;2022-07-12T16:54:42;28.40;61.70
12233;DHT22;6179;51.748;8.728;2022-07-12T17:00:43;28.40;63.40
12233;DHT22;6179;51.748;8.728;2022-07-12T17:06:43;28.60;62.60
12233;DHT22;6179;51.748;8.728;2022-07-12T17:12:44;27.90;62.00
12233;DHT22;6179;51.748;8.728;2022-07-12T17:18:45;28.10;64.40
12233;DHT22;6179;51.748;8.728;2022-07-12T17:24:45;27.90;62.00
12233;DHT22;6179;51.748;8.728;2022-07-12T17:30:47;27.80;66.40
12233;DHT22;6179;51.748;8.728;2022-07-12T17:36:49;27.90;66.80
12233;DHT22;6179;51.748;8.728;2022-07-12T17:42:50;28.00;64.80
12233;DHT22;6179;51.748;8.728;2022-07-12T17:48:51;27.70;66.10
12233;DHT22;6179;51.748;8.728;2022-07-12T17:54:51;27.50;67.80
12233;DHT22;6179;51.748;8.728;2022-07-12T18:00:52;27.40;67.50
12233;DHT22;6179;51.748;8.728;2022-07-12T18:06:53;27.20;69.00
12233;DHT22;6179;51.748;8.728;2022-07-12T18:12:53;27.20;68.80
12233;DHT22;6179;51.748;8.728;2022-07-12T18:19:13;27.20;68.00
12233;DHT22;6179;51.748;8.728;2022-07-12T18:25:14;27.10;68.50
12233;DHT22;6179;51.748;8.728;2022-07-12T18:31:15;27.10;68.60
12233;DHT22;6179;51.748;8.728;2022-07-12T18:37:16;27.20;68.40
12233;DHT22;6179;51.748;8.728;2022-07-12T18:43:16;26.80;69.30
12233;DHT22;6179;51.748;8.728;2022-07-12T18:49:17;26.50;70.70
12233;DHT22;6179;51.748;8.728;2022-07-12T18:55:18;26.40;68.50
12233;DHT22;6179;51.748;8.728;2022-07-12T19:01:18;25.90;71.10
12233;DHT22;6179;51.748;8.728;2022-07-12T19:07:20;25.70;71.70
12233;DHT22;6179;51.748;8.728;2022-07-12T19:13:21;25.30;72.90
12233;DHT22;6179;51.748;8.728;2022-07-12T19:19:22;24.90;73.70
12233;DHT22;6179;51.748;8.728;2022-07-12T19:25:23;24.60;75.20
12233;DHT22;6179;51.748;8.728;2022-07-12T19:31:24;24.30;75.90
12233;DHT22;6179;51.748;8.728;2022-07-12T19:37:24;24.00;77.00
12233;DHT22;6179;51.748;8.728;2022-07-12T19:43:25;23.70;78.00
12233;DHT22;6179;51.748;8.728;2022-07-12T19:49:30;23.40;78.80
12233;DHT22;6179;51.748;8.728;2022-07-12T19:55:31;23.00;80.70
12233;DHT22;6179;51.748;8.728;2022-07-12T20:01:31;22.80;81.60
12233;DHT22;6179;51.748;8.728;2022-07-12T20:07:32;22.50;82.50
12233;DHT22;6179;51.748;8.728;2022-07-12T20:13:33;22.50;82.60
12233;DHT22;6179;51.748;8.728;2022-07-12T20:19:34;22.20;84.70
12233;DHT22;6179;51.748;8.728;2022-07-12T20:25:37;22.00;85.60
12233;DHT22;6179;51.748;8.728;2022-07-12T20:31:37;21.70;86.50
12233;DHT22;6179;51.748;8.728;2022-07-12T20:37:38;21.50;87.60
12233;DHT22;6179;51.748;8.728;2022-07-12T20:43:40;21.30;88.00
12233;DHT22;6179;51.748;8.728;2022-07-12T20:49:41;21.10;88.80
12233;DHT22;6179;51.748;8.728;2022-07-12T20:55:42;20.90;89.40
12233;DHT22;6179;51.748;8.728;2022-07-12T21:01:44;21.00;89.50
12233;DHT22;6179;51.748;8.728;2022-07-12T21:07:46;20.70;90.70
12233;DHT22;6179;51.748;8.728;2022-07-12T21:13:47;20.50;91.80
12233;DHT22;6179;51.748;8.728;2022-07-12T21:19:47;20.50;92.20
12233;DHT22;6179;51.748;8.728;2022-07-12T21:25:48;20.50;91.70
12233;DHT22;6179;51.748;8.728;2022-07-12T21:31:50;20.80;90.60
12233;DHT22;6179;51.748;8.728;2022-07-12T21:37:51;20.70;90.50
12233;DHT22;6179;51.748;8.728;2022-07-12T21:43:52;20.30;92.20
12233;DHT22;6179;51.748;8.728;2022-07-12T21:49:53;20.30;91.50
12233;DHT22;6179;51.748;8.728;2022-07-12T21:55:54;20.10;91.80
12233;DHT22;6179;51.748;8.728;2022-07-12T22:01:54;20.00;92.80
12233;DHT22;6179;51.748;8.728;2022-07-12T22:07:55;19.90;92.60
12233;DHT22;6179;51.748;8.728;2022-07-12T22:13:56;19.90;93.30
12233;DHT22;6179;51.748;8.728;2022-07-12T22:19:57;19.90;93.40
12233;DHT22;6179;51.748;8.728;2022-07-12T22:25:57;19.90;93.30
12233;DHT22;6179;51.748;8.728;2022-07-12T22:31:59;19.90;93.60
12233;DHT22;6179;51.748;8.728;2022-07-12T22:38:00;19.70;93.90
12233;DHT22;6179;51.748;8.728;2022-07-12T22:44:00;19.70;94.40
12233;DHT22;6179;51.748;8.728;2022-07-12T22:50:02;19.80;93.60
12233;DHT22;6179;51.748;8.728;2022-07-12T22:56:03;19.90;93.60
12233;DHT22;6179;51.748;8.728;2022-07-12T23:02:03;20.00;93.70
12233;DHT22;6179;51.748;8.728;2022-07-12T23:08:04;20.00;93.40
12233;DHT22;6179;51.748;8.728;2022-07-12T23:14:05;20.10;92.80
12233;DHT22;6179;51.748;8.728;2022-07-12T23:20:06;20.10;92.60
12233;DHT22;6179;51.748;8.728;2022-07-12T23:26:08;20.20;92.30
12233;DHT22;6179;51.748;8.728;2022-07-12T23:32:09;20.10;92.10
12233;DHT22;6179;51.748;8.728;2022-07-12T23:38:09;20.10;93.00
12233;DHT22;6179;51.748;8.728;2022-07-12T23:44:10;20.20;92.10
12233;DHT22;6179;51.748;8.728;2022-07-12T23:50:11;20.10;92.50
12233;DHT22;6179;51.748;8.728;2022-07-12T23:56:11;20.20;92.40
